Time;durP1;ratioP1;P1;durP2;ratioP2;P2;SDS_P1;SDS_P2;PMS_P1;PMS_P2;Temp;Humidity;BMP_temperature;BMP_pressure;BME280_temperature;BME280_humidity;BME280_pressure;Samples;Min_cycle;Max_cycle;Signal;HPM_P1;HPM_P2
2022/09/23 00:00:33;;;;;;;12.05;10.90;;;10.00;99.90;;;;;;4970673;28;20043;-84
2022/09/23 00:02:59;;;;;;;13.43;11.60;;;9.70;99.90;;;;;;4967676;28;20035;-84
2022/09/23 00:05:26;;;;;;;12.68;11.38;;;9.70;99.90;;;;;;4954137;28;20035;-84
2022/09/23 00:07:51;;;;;;;11.65;10.52;;;9.80;99.90;;;;;;4948278;28;20039;-84
2022/09/23 00:10:17;;;;;;;12.85;11.55;;;9.70;99.90;;;;;;4943208;28;20048;-83
2022/09/23 00:12:43;;;;;;;12.02;10.98;;;9.70;99.90;;;;;;4980748;28;21811;-83
2022/09/23 00:15:10;;;;;;;13.95;11.32;;;9.60;99.90;;;;;;4969020;28;20429;-84
2022/09/23 00:17:36;;;;;;;12.88;11.65;;;9.70;99.90;;;;;;4952758;28;20046;-84
2022/09/23 00:20:02;;;;;;;12.85;10.52;;;9.70;99.90;;;;;;4970001;28;20031;-84
2022/09/23 00:22:27;;;;;;;13.77;12.57;;;9.70;99.90;;;;;;4952894;28;20038;-84
2022/09/23 00:24:53;;;;;;;12.30;11.27;;;9.70;99.90;;;;;;4956713;28;20049;-84
2022/09/23 00:27:20;;;;;;;13.15;11.88;;;9.70;99.90;;;;;;4953119;28;20149;-84
2022/09/23 00:29:47;;;;;;;14.18;11.63;;;9.60;99.90;;;;;;4949987;28;20050;-84
2022/09/23 00:32:12;;;;;;;12.65;11.35;;;9.60;99.90;;;;;;4962244;28;20047;-84
2022/09/23 00:34:38;;;;;;;12.32;11.18;;;9.60;99.90;;;;;;4954868;28;20057;-83
2022/09/23 00:37:04;;;;;;;12.55;11.10;;;9.60;99.90;;;;;;4952280;28;20034;-84
2022/09/23 00:39:30;;;;;;;13.27;11.98;;;9.70;99.90;;;;;;4968758;28;20405;-84
2022/09/23 00:41:55;;;;;;;11.95;10.95;;;9.70;99.90;;;;;;4968068;28;20039;-85
2022/09/23 00:44:51;;;;;;;12.20;10.95;;;9.60;99.90;;;;;;4966389;28;20059;-83
2022/09/23 00:47:20;;;;;;;12.18;11.18;;;9.70;99.90;;;;;;4982788;28;20477;-84
2022/09/23 00:49:49;;;;;;;12.63;11.38;;;9.60;99.90;;;;;;4952997;28;20046;-85
2022/09/23 00:52:19;;;;;;;15.15;11.85;;;9.60;99.90;;;;;;4967245;28;20038;-83
2022/09/23 00:54:46;;;;;;;14.40;12.30;;;9.60;99.90;;;;;;4964333;28;20045;-84
2022/09/23 00:57:14;;;;;;;17.48;13.23;;;9.60;99.90;;;;;;4960042;28;20043;-84
2022/09/23 00:59:41;;;;;;;13.70;12.32;;;9.60;99.90;;;;;;4946857;28;20520;-84
2022/09/23 01:02:14;;;;;;;12.38;10.98;;;9.60;99.90;;;;;;4992208;28;20126;-84
2022/09/23 01:04:40;;;;;;;13.32;12.27;;;9.80;99.90;;;;;;4965598;28;20039;-84
2022/09/23 01:07:06;;;;;;;12.95;11.70;;;9.60;99.90;;;;;;4966388;28;20042;-84
2022/09/23 01:09:32;;;;;;;13.18;11.88;;;9.60;99.90;;;;;;4964361;28;20039;-84
2022/09/23 01:12:33;;;;;;;13.38;10.93;;;9.60;99.90;;;;;;4970639;28;20519;-85
2022/09/23 01:15:09;;;;;;;15.85;11.90;;;9.60;99.90;;;;;;4970283;28;20524;-84
2022/09/23 01:18:00;;;;;;;13.73;11.48;;;9.60;99.90;;;;;;4993186;28;20034;-85
2022/09/23 01:20:54;;;;;;;12.68;11.38;;;9.60;99.90;;;;;;4992722;28;20536;-84
2022/09/23 01:23:42;;;;;;;16.35;13.05;;;9.60;99.90;;;;;;4969711;28;20046;-85
2022/09/23 01:26:23;;;;;;;14.23;12.45;;;9.50;99.90;;;;;;4963146;28;20536;-84
2022/09/23 01:29:01;;;;;;;13.07;11.80;;;9.60;99.90;;;;;;4965095;28;20043;-84
2022/09/23 01:31:36;;;;;;;14.00;11.25;;;9.50;99.90;;;;;;4966911;28;20046;-84
2022/09/23 01:34:12;;;;;;;12.00;10.80;;;9.40;99.90;;;;;;4986497;28;20046;-83
2022/09/23 01:36:59;;;;;;;13.32;12.13;;;10.10;99.90;;;;;;4953523;28;20084;-84
2022/09/23 01:39:37;;;;;;;11.63;10.52;;;9.50;99.90;;;;;;4993152;28;20117;-83
2022/09/23 01:42:16;;;;;;;13.15;11.82;;;9.40;99.90;;;;;;4947457;28;20031;-84
2022/09/23 01:44:47;;;;;;;13.63;11.15;;;9.40;99.90;;;;;;4964030;28;20042;-84
2022/09/23 01:47:21;;;;;;;11.85;10.80;;;9.40;99.90;;;;;;4964803;28;20042;-84
2022/09/23 01:50:54;;;;;;;14.07;12.68;;;9.40;99.90;;;;;;4970045;28;20047;-84
2022/09/23 01:52:51;;;;;;;13.55;12.15;;;9.40;99.90;;;;;;4963379;28;20042;-84
2022/09/23 01:55:29;;;;;;;12.52;11.25;;;9.30;99.90;;;;;;4950939;28;20082;-84
2022/09/23 01:58:03;;;;;;;13.90;12.57;;;9.40;99.90;;;;;;4947877;28;20079;-83
2022/09/23 02:00:33;;;;;;;12.13;11.13;;;10.00;99.90;;;;;;4968392;28;20039;-83
2022/09/23 02:03:18;;;;;;;12.10;10.93;;;9.40;99.90;;;;;;4967819;28;20031;-84
2022/09/23 02:05:49;;;;;;;13.07;11.57;;;9.40;99.90;;;;;;4966405;28;20039;-83
2022/09/23 02:08:20;;;;;;;13.75;10.43;;;9.30;99.90;;;;;;4967645;28;20042;-84
2022/09/23 02:10:51;;;;;;;13.35;12.20;;;9.30;99.90;;;;;;4950169;28;20670;-83
2022/09/23 02:13:58;;;;;;;13.45;12.25;;;9.30;99.90;;;;;;4941433;28;20519;-84
2022/09/23 02:17:59;;;;;;;12.60;11.40;;;9.30;99.90;;;;;;4966101;28;20090;-84
2022/09/23 02:20:37;;;;;;;13.13;11.93;;;9.30;99.90;;;;;;4902936;29;20418;-84
2022/09/23 02:23:32;;;;;;;12.40;11.13;;;9.30;99.90;;;;;;4943773;28;20858;-84
2022/09/23 02:27:02;;;;;;;13.98;11.85;;;9.30;99.90;;;;;;4953669;28;20051;-84
2022/09/23 02:30:08;;;;;;;11.70;10.57;;;9.30;99.90;;;;;;4967335;28;20039;-84
2022/09/23 02:33:06;;;;;;;13.20;11.88;;;9.30;99.90;;;;;;5001184;28;20456;-84
2022/09/23 02:35:41;;;;;;;12.90;11.23;;;9.30;99.90;;;;;;4953829;28;20400;-84
2022/09/23 02:43:18;;;;;;;11.45;10.38;;;9.20;99.90;;;;;;4906149;29;20067;-84
2022/09/23 02:46:20;;;;;;;12.88;11.55;;;9.20;99.90;;;;;;4900777;29;20089;-83
2022/09/23 02:49:32;;;;;;;13.63;12.38;;;9.30;99.90;;;;;;4891747;29;20035;-84
2022/09/23 02:52:08;;;;;;;11.50;10.60;;;9.00;99.90;;;;;;4872989;29;20125;-83
2022/09/23 02:54:55;;;;;;;12.15;11.00;;;9.00;99.90;;;;;;4874285;29;20453;-83
2022/09/23 02:57:27;;;;;;;13.68;11.95;;;8.90;99.90;;;;;;4925537;29;20086;-84
2022/09/23 02:59:57;;;;;;;12.23;10.98;;;9.20;99.90;;;;;;4874141;29;20052;-83
2022/09/23 03:03:05;;;;;;;13.43;12.10;;;8.80;99.90;;;;;;4939063;28;20410;-84
2022/09/23 03:06:18;;;;;;;13.13;11.95;;;8.90;99.90;;;;;;4962239;28;20118;-84
2022/09/23 03:12:52;;;;;;;14.82;13.25;;;8.80;99.90;;;;;;4965169;28;20137;-84
2022/09/23 03:15:46;;;;;;;13.18;11.77;;;8.80;99.90;;;;;;4962818;28;20035;-83
2022/09/23 03:19:17;;;;;;;13.13;11.88;;;8.70;99.90;;;;;;4954248;28;20046;-84
2022/09/23 03:22:50;;;;;;;13.43;12.23;;;8.70;99.90;;;;;;4949821;28;20081;-84
2022/09/23 03:25:34;;;;;;;12.80;11.70;;;8.70;99.90;;;;;;4874380;29;20056;-84
2022/09/23 03:58:21;;;;;;;12.77;11.70;;;8.30;99.90;;;;;;4857936;29;20041;-85
2022/09/23 04:05:30;;;;;;;12.68;11.52;;;8.20;99.90;;;;;;4852321;29;20054;-88
2022/09/23 04:09:13;;;;;;;13.30;12.13;;;8.20;99.90;;;;;;4833431;29;20570;-86
2022/09/23 04:19:21;;;;;;;15.40;13.90;;;8.10;99.90;;;;;;4834423;29;20131;-86
2022/09/23 04:42:23;;;;;;;15.35;13.95;;;8.20;99.90;;;;;;5032286;28;20091;-85
2022/09/23 04:45:00;;;;;;;14.52;13.23;;;8.30;99.90;;;;;;5030144;28;20551;-85
2022/09/23 04:47:48;;;;;;;14.82;13.52;;;8.40;99.90;;;;;;5027261;28;20087;-85
2022/09/23 04:50:16;;;;;;;16.15;13.00;;;8.30;99.90;;;;;;5013767;28;20108;-85
2022/09/23 04:52:44;;;;;;;13.95;12.65;;;8.40;99.90;;;;;;5011872;28;20065;-85
2022/09/23 04:55:10;;;;;;;14.27;12.85;;;8.40;99.90;;;;;;5037281;28;20030;-85
2022/09/23 04:57:57;;;;;;;16.65;14.23;;;9.00;99.90;;;;;;5042735;28;20041;-89
2022/09/23 05:04:13;;;;;;;13.02;11.82;;;8.40;99.90;;;;;;5015310;28;20075;-83
2022/09/23 05:06:44;;;;;;;12.32;11.23;;;8.50;99.90;;;;;;5007537;28;20049;-86
2022/09/23 05:09:33;;;;;;;13.30;12.10;;;8.40;99.90;;;;;;5022839;28;20048;-85
2022/09/23 05:12:01;;;;;;;13.30;11.98;;;8.50;99.90;;;;;;5028065;28;20044;-83
2022/09/23 05:14:27;;;;;;;11.73;10.73;;;8.50;99.90;;;;;;5022162;28;20037;-82
2022/09/23 05:28:16;;;;;;;13.77;12.13;;;8.30;99.90;;;;;;4951146;28;20054;-86
2022/09/23 05:34:35;;;;;;;13.55;12.32;;;8.40;99.90;;;;;;4940437;28;20053;-83
2022/09/23 05:37:00;;;;;;;14.55;13.15;;;8.40;99.90;;;;;;4944585;28;20039;-83
2022/09/23 05:39:26;;;;;;;14.15;12.63;;;8.80;99.90;;;;;;5028281;28;20085;-83
2022/09/23 05:41:52;;;;;;;14.60;13.10;;;8.60;99.90;;;;;;5000806;28;20040;-85
2022/09/23 05:44:18;;;;;;;14.85;12.30;;;8.60;99.90;;;;;;5014625;28;20045;-85
2022/09/23 05:46:43;;;;;;;14.27;11.63;;;8.60;99.90;;;;;;5014618;28;20116;-82
2022/09/23 05:49:12;;;;;;;12.85;11.65;;;8.60;99.90;;;;;;5015535;28;20064;-83
2022/09/23 05:51:38;;;;;;;12.77;11.43;;;8.70;99.90;;;;;;5012817;28;20108;-84
2022/09/23 05:54:06;;;;;;;13.45;12.15;;;8.80;99.90;;;;;;4999900;28;20034;-84
2022/09/23 05:56:38;;;;;;;12.55;11.25;;;8.90;99.90;;;;;;4998217;28;20124;-83
2022/09/23 05:59:05;;;;;;;15.00;11.02;;;9.10;99.90;;;;;;5015055;28;20042;-84
2022/09/23 06:01:34;;;;;;;11.48;10.35;;;9.30;99.90;;;;;;5024804;28;20046;-84
2022/09/23 06:04:01;;;;;;;11.80;10.45;;;10.00;99.90;;;;;;5013654;28;20095;-84
2022/09/23 06:06:29;;;;;;;10.68;9.57;;;9.80;99.90;;;;;;5011645;28;20034;-83
2022/09/23 06:08:58;;;;;;;10.25;9.15;;;10.00;99.90;;;;;;5010924;28;20053;-83
2022/09/23 06:11:24;;;;;;;10.93;8.98;;;10.30;99.90;;;;;;4993790;28;20121;-83
2022/09/23 06:13:54;;;;;;;13.02;9.18;;;10.60;99.90;;;;;;5001845;28;20164;-84
2022/09/23 06:16:20;;;;;;;9.15;7.75;;;11.10;99.90;;;;;;5013559;28;20029;-84
2022/09/23 06:18:46;;;;;;;9.55;8.73;;;11.80;99.90;;;;;;4999768;28;20045;-84
2022/09/23 06:21:13;;;;;;;8.07;7.22;;;11.90;99.90;;;;;;5013943;28;20037;-84
2022/09/23 06:23:40;;;;;;;8.55;7.65;;;12.40;99.90;;;;;;4998666;28;20041;-85
2022/09/23 06:26:10;;;;;;;10.52;7.00;;;12.80;99.90;;;;;;5015248;28;20037;-84
2022/09/23 06:28:38;;;;;;;8.27;6.93;;;13.70;99.90;;;;;;5014556;28;20122;-84
2022/09/23 06:31:31;;;;;;;8.52;5.88;;;14.60;99.90;;;;;;5000684;28;20052;-84
2022/09/23 06:34:44;;;;;;;6.90;6.20;;;14.90;99.90;;;;;;4981185;28;20083;-83
2022/09/23 06:37:13;;;;;;;9.15;7.40;;;14.90;99.90;;;;;;5017079;28;20703;-83
2022/09/23 06:39:41;;;;;;;10.20;6.20;;;14.60;99.90;;;;;;5017173;28;20077;-83
2022/09/23 06:42:18;;;;;;;8.60;6.88;;;14.40;99.90;;;;;;5015468;28;20045;-84
2022/09/23 06:45:16;;;;;;;8.05;6.63;;;14.80;99.90;;;;;;4998084;28;20597;-86
2022/09/23 06:47:43;;;;;;;12.50;7.22;;;14.10;99.90;;;;;;5030234;28;20046;-83
2022/09/23 06:50:17;;;;;;;13.68;6.95;;;13.80;99.90;;;;;;5043587;28;20112;-83
2022/09/23 06:56:22;;;;;;;8.32;7.43;;;13.30;99.90;;;;;;4995258;28;20053;-84
2022/09/23 06:59:00;;;;;;;8.05;7.22;;;13.00;99.90;;;;;;5010504;28;20848;-85
2022/09/23 07:09:24;;;;;;;10.40;7.35;;;12.30;99.90;;;;;;4940836;28;20047;-83
2022/09/23 07:16:04;;;;;;;11.68;7.60;;;12.10;99.90;;;;;;4915291;28;20042;-85
2022/09/23 07:59:25;;;;;;;8.52;7.40;;;12.10;99.90;;;;;;4923216;28;20559;-82
2022/09/23 08:01:55;;;;;;;10.82;7.28;;;12.20;99.90;;;;;;4928230;28;20082;-82
2022/09/23 08:04:27;;;;;;;7.57;6.82;;;12.30;99.90;;;;;;4964325;28;20188;-83
2022/09/23 08:06:56;;;;;;;10.30;7.25;;;12.30;99.90;;;;;;4996057;28;20121;-82
2022/09/23 08:13:07;;;;;;;9.27;7.97;;;12.40;99.90;;;;;;5011563;28;20087;-83
2022/09/23 08:15:33;;;;;;;8.48;7.68;;;12.50;99.90;;;;;;5041801;28;20062;-81
2022/09/23 08:17:59;;;;;;;9.25;7.78;;;12.50;99.90;;;;;;5017520;28;20057;-82
2022/09/23 09:27:40;;;;;;;7.03;6.28;;;15.10;99.90;;;;;;4735577;30;20209;-84
2022/09/23 09:42:39;;;;;;;5.97;5.38;;;15.80;99.90;;;;;;4699353;30;20156;-84
2022/09/23 10:00:54;;;;;;;8.15;5.10;;;16.00;99.90;;;;;;4898325;29;20853;-84
2022/09/23 10:55:42;;;;;;;11.02;5.32;;;16.40;99.90;;;;;;5005445;28;20508;-83
2022/09/23 10:58:18;;;;;;;12.05;5.60;;;16.40;99.90;;;;;;4984275;28;20080;-83
2022/09/23 11:01:07;;;;;;;;;;;16.40;99.90;;;;;;5019224;28;20091;-85
2022/09/23 11:04:27;;;;;;;8.13;5.78;;;16.40;99.90;;;;;;5033023;28;19952;-81
2022/09/23 11:07:39;;;;;;;7.07;5.60;;;16.30;99.90;;;;;;4971766;28;20052;-83
2022/09/23 11:10:21;;;;;;;7.70;6.60;;;16.30;99.90;;;;;;5011301;28;20058;-83
2022/09/23 11:13:39;;;;;;;9.68;6.50;;;16.20;99.90;;;;;;4996483;28;20045;-82
2022/09/23 11:16:04;;;;;;;6.57;5.93;;;16.20;99.90;;;;;;4973221;28;20073;-82
2022/09/23 11:18:48;;;;;;;9.60;5.88;;;16.20;99.90;;;;;;5032413;28;21496;-86
2022/09/23 11:21:36;;;;;;;8.75;5.78;;;16.20;99.90;;;;;;4982574;28;20053;-85
2022/09/23 11:24:20;;;;;;;9.73;6.60;;;16.20;99.90;;;;;;4983712;28;20458;-84
2022/09/23 11:27:15;;;;;;;8.55;6.28;;;16.10;99.90;;;;;;4999060;28;20072;-82
2022/09/23 11:29:53;;;;;;;8.38;6.45;;;16.10;99.90;;;;;;5000969;28;20053;-84
2022/09/23 11:32:46;;;;;;;7.95;6.72;;;16.10;99.90;;;;;;4998507;28;20041;-85
2022/09/23 11:35:16;;;;;;;7.63;6.40;;;16.10;99.90;;;;;;5017176;28;20086;-85
2022/09/23 11:37:47;;;;;;;10.93;6.47;;;15.90;99.90;;;;;;4998573;28;20050;-83
2022/09/23 11:40:19;;;;;;;7.68;6.88;;;16.10;99.90;;;;;;4982608;28;20144;-85
2022/09/23 11:43:00;;;;;;;8.02;6.45;;;16.00;99.90;;;;;;5002989;28;20052;-82
2022/09/23 11:45:36;;;;;;;9.43;6.47;;;16.00;99.90;;;;;;4997896;28;20729;-85
2022/09/23 11:48:17;;;;;;;10.35;6.25;;;16.00;99.90;;;;;;5013926;28;20074;-84
2022/09/23 11:50:54;;;;;;;8.57;6.35;;;16.00;99.90;;;;;;5000497;28;20124;-85
2022/09/23 11:53:35;;;;;;;7.55;6.85;;;16.00;99.90;;;;;;5001831;28;20121;-83
2022/09/23 11:56:08;;;;;;;7.97;6.32;;;16.00;99.90;;;;;;5001096;28;20046;-83
2022/09/23 11:58:48;;;;;;;11.52;6.53;;;16.00;99.90;;;;;;5015667;28;20050;-83
2022/09/23 12:01:30;;;;;;;8.45;7.60;;;16.00;99.90;;;;;;5004027;28;20050;-85
2022/09/23 12:04:11;;;;;;;7.82;6.28;;;16.10;99.90;;;;;;4986787;28;20109;-85
2022/09/23 12:06:42;;;;;;;8.15;5.88;;;16.00;99.90;;;;;;4985126;28;20083;-83
2022/09/23 12:09:38;;;;;;;7.88;6.78;;;16.10;99.90;;;;;;5004060;28;20146;-83
2022/09/23 12:12:26;;;;;;;8.10;6.72;;;16.30;99.90;;;;;;4983234;28;20717;-82
2022/09/23 12:14:58;;;;;;;8.52;6.32;;;16.10;99.90;;;;;;5031030;28;20475;-85
2022/09/23 12:17:43;;;;;;;9.32;6.80;;;16.10;99.90;;;;;;5001245;28;21760;-85
2022/09/23 12:20:28;;;;;;;9.23;6.43;;;16.10;99.90;;;;;;5031078;28;20068;-85
2022/09/23 12:23:17;;;;;;;9.38;6.30;;;16.40;99.90;;;;;;4985634;28;20030;-83
2022/09/23 12:25:59;;;;;;;8.00;6.22;;;16.20;99.90;;;;;;5014066;28;20042;-83
2022/09/23 12:28:32;;;;;;;7.45;5.78;;;16.20;99.90;;;;;;5010022;28;20050;-85
2022/09/23 12:30:59;;;;;;;9.38;6.82;;;16.20;99.90;;;;;;5018201;28;20034;-82
2022/09/23 12:33:31;;;;;;;7.60;6.47;;;16.30;99.90;;;;;;5008603;28;20080;-84
2022/09/23 12:36:09;;;;;;;8.05;6.15;;;16.30;99.90;;;;;;5000549;28;20048;-82
2022/09/23 12:38:35;;;;;;;13.70;6.85;;;16.40;99.90;;;;;;5020566;28;20054;-82
2022/09/23 12:41:07;;;;;;;7.60;6.85;;;16.30;99.90;;;;;;5013486;28;20053;-82
2022/09/23 12:43:34;;;;;;;8.27;6.20;;;16.30;99.90;;;;;;5012979;28;20054;-83
2022/09/23 12:46:26;;;;;;;10.30;6.78;;;16.40;99.90;;;;;;5038123;28;20545;-84
2022/09/23 12:48:57;;;;;;;10.55;6.70;;;16.30;99.90;;;;;;5048441;28;20731;-83
2022/09/23 12:51:28;;;;;;;7.07;6.18;;;16.40;99.90;;;;;;5049867;28;20046;-82
2022/09/23 12:53:57;;;;;;;11.25;6.82;;;16.40;99.90;;;;;;4998983;28;20125;-84
2022/09/23 12:56:27;;;;;;;8.10;6.68;;;16.40;99.90;;;;;;5015994;28;20051;-83
2022/09/23 12:59:15;;;;;;;6.97;6.28;;;16.40;99.90;;;;;;5017335;28;20049;-83
2022/09/23 13:01:41;;;;;;;9.70;7.25;;;16.40;99.90;;;;;;5021864;28;20042;-86
2022/09/23 13:07:16;;;;;;;9.70;7.18;;;16.40;99.90;;;;;;5052946;28;20095;-85
2022/09/23 13:09:46;;;;;;;9.43;5.88;;;16.90;99.90;;;;;;5036122;28;20049;-83
2022/09/23 13:12:31;;;;;;;8.52;5.90;;;16.40;99.90;;;;;;5015332;28;20044;-83
2022/09/23 13:15:02;;;;;;;9.83;6.80;;;16.40;99.90;;;;;;5019086;28;20418;-83
2022/09/23 13:17:34;;;;;;;8.40;6.97;;;16.40;99.90;;;;;;5014666;28;20288;-82
2022/09/23 13:20:18;;;;;;;12.88;6.47;;;16.40;99.90;;;;;;5015928;28;20056;-82
2022/09/23 13:22:53;;;;;;;6.82;6.07;;;16.40;99.90;;;;;;4998518;28;20076;-83
2022/09/23 13:25:23;;;;;;;8.65;5.55;;;16.40;99.90;;;;;;5038895;28;20050;-83
2022/09/23 13:27:51;;;;;;;6.50;5.90;;;16.40;99.90;;;;;;5035455;28;20046;-83
2022/09/23 13:30:20;;;;;;;7.85;6.00;;;16.30;99.90;;;;;;5044054;28;20068;-83
2022/09/23 13:33:06;;;;;;;6.40;5.75;;;16.40;99.90;;;;;;5010946;28;20129;-83
2022/09/23 13:35:52;;;;;;;6.30;5.70;;;16.30;99.90;;;;;;5004106;28;20049;-85
2022/09/23 13:38:53;;;;;;;8.13;5.70;;;16.30;99.90;;;;;;5003399;28;20049;-85
2022/09/23 14:26:34;;;;;;;9.73;6.78;;;16.40;99.90;;;;;;5007577;28;20109;-85
2022/09/23 14:45:34;;;;;;;11.38;6.00;;;16.50;99.90;;;;;;4962608;28;20042;-86
2022/09/23 14:56:59;;;;;;;9.85;6.43;;;16.30;99.90;;;;;;4861997;29;20059;-84
2022/09/23 15:15:04;;;;;;;7.60;6.82;;;16.00;99.90;;;;;;4904268;29;20072;-84
2022/09/23 15:18:17;;;;;;;10.75;7.40;;;16.00;99.90;;;;;;4936788;28;20465;-86
2022/09/23 15:21:15;;;;;;;7.72;6.80;;;16.00;99.90;;;;;;4946782;28;20030;-84
2022/09/23 15:28:17;;;;;;;9.02;7.00;;;16.00;99.90;;;;;;5002245;28;20041;-83
2022/09/23 15:30:43;;;;;;;9.75;7.15;;;16.10;99.90;;;;;;5003812;28;20120;-84
2022/09/23 16:01:40;;;;;;;8.90;7.90;;;16.00;99.90;;;;;;1484957;26;20059;-83
2022/09/23 16:07:48;;;;;;;9.77;8.88;;;15.90;99.90;;;;;;5023932;28;20581;-85
2022/09/23 16:10:14;;;;;;;8.98;8.07;;;15.90;99.90;;;;;;5011553;28;20049;-84
2022/09/23 16:12:40;;;;;;;11.85;9.77;;;15.80;99.90;;;;;;5032557;28;20403;-84
2022/09/23 16:15:19;;;;;;;9.40;8.40;;;15.70;99.90;;;;;;5034585;28;20038;-84
2022/09/23 16:17:45;;;;;;;11.20;10.13;;;15.70;99.90;;;;;;5035168;28;20128;-82
2022/09/23 16:20:16;;;;;;;10.82;9.73;;;15.70;99.90;;;;;;5032993;28;20114;-83
2022/09/23 16:22:51;;;;;;;10.65;9.55;;;15.70;99.90;;;;;;5036864;28;20033;-83
2022/09/23 16:25:18;;;;;;;11.40;10.18;;;15.60;99.90;;;;;;5032517;28;20041;-82
2022/09/23 16:27:44;;;;;;;12.05;10.82;;;15.60;99.90;;;;;;5034089;28;20037;-83
2022/09/23 16:30:10;;;;;;;14.75;11.43;;;15.60;99.90;;;;;;5034672;28;20095;-82
2022/09/23 16:32:36;;;;;;;12.32;10.55;;;15.60;99.90;;;;;;5033688;28;20041;-82
2022/09/23 16:35:01;;;;;;;12.52;9.90;;;15.50;99.90;;;;;;5036326;28;20118;-83
2022/09/23 16:37:27;;;;;;;11.65;9.30;;;15.60;99.90;;;;;;5028570;28;20094;-82
2022/09/23 16:39:52;;;;;;;9.45;8.55;;;15.60;99.90;;;;;;5030559;28;20041;-83
2022/09/23 16:42:18;;;;;;;9.07;8.25;;;15.50;99.90;;;;;;5031773;28;20431;-82
2022/09/23 16:44:44;;;;;;;8.65;7.80;;;15.50;99.90;;;;;;5037154;28;20477;-82
2022/09/23 16:47:09;;;;;;;9.57;7.88;;;15.50;99.90;;;;;;5039944;28;20077;-84
2022/09/23 16:49:35;;;;;;;8.73;7.93;;;15.50;99.90;;;;;;5019345;28;20045;-83
2022/09/23 16:52:00;;;;;;;8.68;7.85;;;15.50;99.90;;;;;;5020426;28;20045;-83
2022/09/23 16:54:26;;;;;;;10.30;8.45;;;15.40;99.90;;;;;;5036618;28;20038;-83
2022/09/23 16:56:53;;;;;;;9.98;7.95;;;15.40;99.90;;;;;;5034520;28;20129;-83
2022/09/23 16:59:20;;;;;;;13.30;8.25;;;15.40;99.90;;;;;;5031457;28;20073;-83
2022/09/23 17:04:30;;;;;;;9.80;8.23;;;15.30;99.90;;;;;;5035047;28;20050;-83
2022/09/23 17:06:57;;;;;;;9.43;8.20;;;15.30;99.90;;;;;;5031733;28;20121;-82
2022/09/23 17:09:25;;;;;;;11.82;8.02;;;15.30;99.90;;;;;;5036728;28;20077;-82
2022/09/23 17:11:59;;;;;;;10.25;8.20;;;15.30;99.90;;;;;;5036892;28;20037;-83
2022/09/23 17:14:24;;;;;;;10.30;8.10;;;15.20;99.90;;;;;;5033014;28;20076;-83
2022/09/23 17:16:50;;;;;;;10.02;7.90;;;15.20;99.90;;;;;;5038120;28;20056;-83
2022/09/23 17:19:15;;;;;;;12.90;8.40;;;15.20;99.90;;;;;;5033191;28;20049;-84
2022/09/23 17:21:41;;;;;;;9.50;8.38;;;15.20;99.90;;;;;;5034788;28;20053;-83
2022/09/23 17:24:07;;;;;;;9.27;7.82;;;15.10;99.90;;;;;;5035838;28;20048;-83
2022/09/23 17:26:33;;;;;;;9.18;8.10;;;15.10;99.90;;;;;;5033345;28;20049;-83
2022/09/23 17:29:00;;;;;;;13.77;8.57;;;15.10;99.90;;;;;;5034936;28;20104;-82
2022/09/23 17:31:26;;;;;;;15.10;9.02;;;15.10;99.90;;;;;;5032398;28;20056;-83
2022/09/23 17:33:52;;;;;;;10.13;8.25;;;15.10;99.90;;;;;;5031009;28;20038;-82
2022/09/23 17:36:19;;;;;;;10.23;8.35;;;15.00;99.90;;;;;;5036672;28;20033;-82
2022/09/23 17:38:46;;;;;;;11.55;8.57;;;14.90;99.90;;;;;;5039461;28;20418;-83
2022/09/23 17:41:12;;;;;;;10.98;8.50;;;14.90;99.90;;;;;;5034760;28;20067;-83
2022/09/23 17:43:39;;;;;;;12.05;9.07;;;14.90;99.90;;;;;;5040562;28;20048;-84
2022/09/23 17:46:08;;;;;;;10.43;9.40;;;14.80;99.90;;;;;;5038116;28;20106;-83
2022/09/23 17:48:35;;;;;;;10.30;9.32;;;14.70;99.90;;;;;;5038410;28;20053;-82
2022/09/23 17:51:04;;;;;;;11.98;10.65;;;14.70;99.90;;;;;;5037228;28;20060;-84
2022/09/23 17:53:33;;;;;;;11.45;10.32;;;14.60;99.90;;;;;;5019067;28;20049;-82
2022/09/23 17:56:10;;;;;;;10.88;9.65;;;14.70;99.90;;;;;;5031306;28;20484;-82
2022/09/23 17:58:36;;;;;;;12.40;10.25;;;14.60;99.90;;;;;;5037349;28;21383;-83
2022/09/23 18:01:03;;;;;;;11.68;10.52;;;14.60;99.90;;;;;;5035054;28;20051;-82
2022/09/23 18:03:30;;;;;;;21.70;16.45;;;14.50;99.90;;;;;;5016631;28;20744;-81
2022/09/23 18:06:15;;;;;;;18.00;14.23;;;14.50;99.90;;;;;;5032828;28;20049;-83
2022/09/23 18:08:43;;;;;;;24.35;18.42;;;14.50;99.90;;;;;;5035879;28;20056;-83
2022/09/23 18:11:16;;;;;;;19.60;16.00;;;14.50;99.90;;;;;;5036679;28;20041;-85
2022/09/23 18:13:46;;;;;;;18.05;16.13;;;14.50;99.90;;;;;;5032725;28;20079;-85
2022/09/23 18:16:11;;;;;;;16.35;14.50;;;14.40;99.90;;;;;;5034564;28;20057;-86
2022/09/23 18:18:38;;;;;;;18.80;14.93;;;14.40;99.90;;;;;;5035893;28;20045;-82
2022/09/23 18:21:04;;;;;;;16.35;14.63;;;14.40;99.90;;;;;;5016531;28;20044;-83
2022/09/23 18:23:29;;;;;;;19.88;16.90;;;14.40;99.90;;;;;;5040624;28;20053;-83
2022/09/23 18:25:55;;;;;;;20.67;18.17;;;14.40;99.90;;;;;;5019811;28;20757;-82
2022/09/23 18:28:21;;;;;;;20.67;17.98;;;14.40;99.90;;;;;;5033247;28;20126;-83
2022/09/23 18:31:44;;;;;;;20.45;16.77;;;14.30;99.90;;;;;;5032833;28;21010;-83
2022/09/23 18:34:11;;;;;;;21.83;12.75;;;14.30;99.90;;;;;;5029759;28;20068;-85
2022/09/23 19:21:01;;;;;;;13.27;11.98;;;14.00;99.90;;;;;;5023163;28;20565;-85
2022/09/23 19:24:26;;;;;;;13.45;12.25;;;13.90;99.90;;;;;;4988057;28;20053;-86
2022/09/23 19:39:14;;;;;;;13.80;12.50;;;13.80;99.90;;;;;;5002177;28;20080;-86
2022/09/23 19:53:36;;;;;;;17.38;12.90;;;13.70;99.90;;;;;;4907940;29;20517;-85
